createdAt,value
2022-09-06T00:01:39.610Z,1.75
2022-09-06T00:04:15.057Z,1.77
2022-09-06T00:06:42.392Z,1.75
2022-09-06T00:09:12.948Z,1.85
2022-09-06T00:11:43.465Z,1.60
2022-09-06T00:14:13.947Z,1.90
2022-09-06T00:16:44.536Z,1.70
2022-09-06T00:19:15.094Z,1.85
2022-09-06T00:21:45.581Z,1.40
2022-09-06T00:24:16.257Z,1.65
2022-09-06T00:26:46.721Z,1.52
2022-09-06T00:29:17.317Z,1.80
2022-09-06T00:31:47.921Z,1.62
2022-09-06T00:34:18.469Z,1.72
2022-09-06T00:36:49.187Z,1.80
2022-09-06T00:39:19.721Z,1.40
2022-09-06T00:41:50.416Z,1.40
2022-09-06T00:44:21.132Z,1.50
2022-09-06T00:46:54.879Z,1.27
2022-09-06T00:49:28.455Z,1.60
2022-09-06T00:52:02.021Z,1.40
2022-09-06T00:54:33.413Z,1.47
2022-09-06T00:57:04.483Z,1.42
2022-09-06T00:59:37.609Z,1.37
2022-09-06T01:02:09.540Z,1.35
2022-09-06T01:04:43.660Z,1.50
2022-09-06T01:07:17.247Z,1.27
2022-09-06T01:10:02.129Z,1.40
2022-09-06T01:12:47.866Z,1.20
2022-09-06T01:15:27.048Z,1.60
2022-09-06T01:18:18.693Z,1.40
2022-09-06T01:21:26.943Z,1.47
2022-09-06T01:24:21.505Z,1.40
2022-09-06T01:27:16.349Z,1.40
2022-09-06T01:29:53.010Z,1.50
2022-09-06T01:32:29.243Z,1.42
2022-09-06T01:35:05.519Z,1.32
2022-09-06T01:37:36.137Z,1.40
2022-09-06T01:40:07.714Z,1.40
2022-09-06T01:42:41.474Z,1.35
2022-09-06T01:45:15.048Z,1.32
2022-09-06T01:48:08.043Z,1.30
2022-09-06T01:50:47.552Z,1.30
2022-09-06T01:53:22.441Z,1.50
2022-09-06T01:56:14.093Z,1.20
2022-09-06T01:59:07.069Z,1.50
2022-09-06T02:01:40.813Z,1.40
2022-09-06T02:04:20.520Z,1.20
2022-09-06T02:06:54.733Z,1.40
2022-09-06T02:09:27.736Z,1.50
2022-09-06T02:12:00.801Z,1.40
2022-09-06T02:14:43.264Z,1.32
2022-09-06T02:17:16.845Z,1.40
2022-09-06T02:19:53.741Z,1.20
2022-09-06T02:22:27.244Z,1.40
2022-09-06T02:25:00.001Z,1.30
2022-09-06T02:27:31.168Z,1.40
2022-09-06T02:30:03.059Z,1.40
2022-09-06T02:32:36.635Z,1.30
2022-09-06T02:35:10.206Z,1.47
2022-09-06T02:37:42.154Z,1.50
2022-09-06T02:40:13.311Z,1.70
2022-09-06T02:42:43.780Z,1.37
2022-09-06T02:45:14.286Z,1.42
2022-09-06T02:47:44.743Z,1.40
2022-09-06T02:50:15.339Z,1.37
2022-09-06T02:52:45.869Z,1.45
2022-09-06T02:55:16.444Z,1.40
2022-09-06T02:57:47.366Z,1.80
2022-09-06T03:00:17.935Z,1.32
2022-09-06T03:02:48.615Z,1.50
2022-09-06T03:05:19.086Z,1.50
2022-09-06T03:07:49.931Z,1.50
2022-09-06T03:10:20.726Z,1.60
2022-09-06T03:12:51.280Z,1.30
2022-09-06T03:15:22.472Z,1.47
2022-09-06T03:17:53.008Z,1.75
2022-09-06T03:20:23.556Z,1.70
2022-09-06T03:22:54.007Z,1.60
2022-09-06T03:25:25.640Z,1.50
2022-09-06T03:27:56.106Z,1.40
2022-09-06T03:30:26.657Z,1.60
2022-09-06T03:32:59.815Z,1.50
2022-09-06T03:35:29.540Z,1.40
2022-09-06T03:38:00.025Z,1.80
2022-09-06T03:40:30.558Z,1.60
2022-09-06T03:43:01.102Z,1.57
2022-09-06T03:45:31.621Z,1.40
2022-09-06T03:48:02.240Z,1.50
2022-09-06T03:50:32.673Z,1.67
2022-09-06T03:53:03.135Z,1.57
2022-09-06T03:55:33.581Z,1.30
2022-09-06T03:58:04.185Z,1.80
2022-09-06T04:00:34.803Z,1.45
2022-09-06T04:03:05.396Z,1.50
2022-09-06T04:05:36.183Z,1.57
2022-09-06T04:08:06.724Z,1.47
2022-09-06T04:10:38.139Z,6.55
2022-09-06T04:13:08.600Z,2.17
2022-09-06T04:15:39.063Z,4.35
2022-09-06T04:18:09.597Z,1.80
2022-09-06T04:20:40.165Z,1.62
2022-09-06T04:23:10.827Z,1.80
2022-09-06T04:25:41.382Z,1.50
2022-09-06T04:28:11.835Z,2.00
2022-09-06T04:30:42.436Z,1.60
2022-09-06T04:33:13.054Z,1.95
2022-09-06T04:35:43.527Z,3.02
2022-09-06T04:38:14.041Z,2.87
2022-09-06T04:40:44.623Z,1.90
2022-09-06T04:43:15.218Z,2.10
2022-09-06T04:45:46.066Z,2.12
2022-09-06T04:48:17.096Z,1.82
2022-09-06T04:50:47.604Z,1.70
2022-09-06T04:53:18.126Z,1.67
2022-09-06T04:55:48.795Z,1.77
2022-09-06T04:58:19.392Z,1.70
2022-09-06T05:00:49.910Z,1.70
2022-09-06T05:03:20.425Z,1.90
2022-09-06T05:05:50.956Z,1.70
2022-09-06T05:08:21.603Z,1.60
2022-09-06T05:10:52.841Z,1.70
2022-09-06T05:13:23.396Z,1.98
2022-09-06T05:15:53.948Z,2.00
2022-09-06T05:18:24.509Z,1.95
2022-09-06T05:20:56.049Z,1.72
2022-09-06T05:23:26.699Z,2.00
2022-09-06T05:25:57.236Z,1.80
2022-09-06T05:28:27.943Z,2.00
2022-09-06T05:31:12.424Z,2.20
2022-09-06T05:33:43.004Z,1.92
2022-09-06T05:36:13.525Z,1.70
2022-09-06T05:38:44.042Z,1.87
2022-09-06T05:41:14.518Z,1.57
2022-09-06T05:43:45.481Z,1.37
2022-09-06T05:46:17.600Z,1.90
2022-09-06T05:49:04.007Z,1.90
2022-09-06T05:51:34.817Z,1.98
2022-09-06T05:54:05.360Z,2.40
2022-09-06T05:56:35.877Z,2.12
2022-09-06T05:59:06.338Z,3.52
2022-09-06T06:01:37.019Z,2.42
2022-09-06T06:04:08.578Z,2.10
2022-09-06T06:06:39.113Z,1.90
2022-09-06T06:09:09.704Z,1.60
2022-09-06T06:11:40.907Z,1.85
2022-09-06T06:14:11.419Z,1.85
2022-09-06T06:16:41.995Z,1.75
2022-09-06T06:19:12.511Z,2.25
2022-09-06T06:21:43.729Z,1.80
2022-09-06T06:24:14.330Z,1.70
2022-09-06T06:26:44.823Z,1.70
2022-09-06T06:29:15.625Z,1.80
2022-09-06T06:31:46.146Z,1.70
2022-09-06T06:34:18.324Z,1.77
2022-09-06T06:36:49.228Z,1.85
2022-09-06T06:39:19.691Z,2.10
2022-09-06T06:41:50.759Z,6.12
2022-09-06T06:44:21.340Z,1.92
2022-09-06T06:46:52.108Z,2.53
2022-09-06T06:49:22.557Z,2.00
2022-09-06T06:51:53.103Z,2.20
2022-09-06T06:54:23.648Z,2.45
2022-09-06T06:56:54.211Z,1.82
2022-09-06T06:59:24.698Z,2.30
2022-09-06T07:01:55.257Z,2.08
2022-09-06T07:04:25.814Z,2.25
2022-09-06T07:12:02.059Z,2.45
2022-09-06T07:14:32.669Z,2.20
2022-09-06T07:17:09.236Z,2.08
2022-09-06T07:22:11.846Z,2.42
2022-09-06T07:24:42.330Z,2.40
2022-09-06T07:29:44.975Z,2.45
2022-09-06T07:32:15.667Z,2.08
2022-09-06T07:34:46.220Z,2.10
2022-09-06T07:37:16.986Z,2.20
2022-09-06T07:39:47.556Z,2.10
2022-09-06T07:42:18.138Z,2.60
2022-09-06T07:44:48.668Z,2.35
2022-09-06T07:55:00.392Z,2.33
2022-09-06T07:57:30.986Z,2.20
2022-09-06T08:00:01.516Z,3.17
2022-09-06T08:02:32.427Z,2.62
2022-09-06T08:10:07.538Z,2.25
2022-09-06T08:12:38.072Z,2.55
2022-09-06T08:15:09.515Z,2.77
2022-09-06T08:17:39.986Z,2.70
2022-09-06T08:20:11.070Z,2.80
2022-09-06T08:22:41.747Z,2.70
2022-09-06T08:25:12.238Z,2.65
2022-09-06T08:27:42.785Z,2.62
2022-09-06T08:30:14.393Z,2.72
2022-09-06T08:32:44.969Z,2.98
2022-09-06T08:35:15.626Z,3.00
2022-09-06T08:37:46.199Z,3.02
2022-09-06T08:40:19.842Z,2.75
2022-09-06T08:42:50.541Z,3.08
2022-09-06T08:45:23.277Z,3.20
2022-09-06T08:47:54.164Z,2.85
2022-09-06T08:50:28.064Z,3.30
2022-09-06T08:53:18.075Z,3.12
2022-09-06T08:55:40.005Z,3.15
2022-09-06T08:58:22.664Z,3.50
2022-09-06T09:00:58.173Z,3.12
2022-09-06T09:03:37.012Z,3.40
2022-09-06T09:06:10.104Z,3.00
2022-09-06T09:09:07.885Z,3.17
2022-09-06T09:11:40.630Z,2.98
2022-09-06T09:14:20.201Z,3.17
2022-09-06T09:16:55.914Z,2.87
2022-09-06T09:19:26.434Z,3.22
2022-09-06T09:21:56.905Z,3.17
2022-09-06T09:24:27.406Z,3.15
2022-09-06T09:27:13.360Z,3.30
2022-09-06T09:32:39.981Z,3.47
2022-09-06T09:35:36.696Z,3.60
2022-09-06T09:38:13.094Z,3.70
2022-09-06T09:40:55.637Z,3.00
2022-09-06T09:43:41.289Z,2.98
2022-09-06T09:46:17.914Z,2.83
2022-09-06T09:49:08.144Z,3.50
2022-09-06T09:51:44.483Z,3.45
2022-09-06T09:54:17.723Z,2.70
2022-09-06T09:56:53.518Z,2.90
2022-09-06T09:59:32.811Z,2.98
2022-09-06T10:02:05.476Z,3.12
2022-09-06T10:07:18.217Z,3.20
2022-09-06T10:09:51.565Z,3.65
2022-09-06T10:12:40.259Z,3.25
2022-09-06T10:15:34.153Z,3.58
2022-09-06T10:18:05.336Z,2.98
2022-09-06T10:20:50.931Z,3.30
2022-09-06T10:26:05.486Z,2.95
2022-09-06T10:28:45.481Z,5.03
2022-09-06T10:31:24.587Z,10.32
2022-09-06T10:34:18.113Z,5.62
2022-09-06T10:36:54.724Z,3.92
2022-09-06T10:39:58.374Z,3.95
2022-09-06T10:42:50.345Z,3.50
2022-09-06T10:45:26.715Z,3.52
2022-09-06T10:48:17.251Z,3.58
2022-09-06T10:50:50.913Z,3.92
2022-09-06T10:53:33.679Z,3.58
2022-09-06T10:56:09.978Z,3.50
2022-09-06T11:01:24.625Z,4.40
2022-09-06T11:04:01.979Z,3.60
2022-09-06T11:06:33.424Z,3.65
2022-09-06T11:09:15.854Z,3.30
2022-09-06T11:11:52.250Z,3.58
2022-09-06T11:14:25.771Z,3.45
2022-09-06T11:17:03.024Z,3.62
2022-09-06T11:19:42.119Z,3.45
2022-09-06T11:22:42.816Z,3.62
2022-09-06T11:25:25.227Z,3.77
2022-09-06T11:27:58.949Z,3.37
2022-09-06T11:30:31.545Z,3.90
2022-09-06T11:33:26.104Z,3.45
2022-09-06T11:36:18.326Z,5.33
2022-09-06T11:38:59.197Z,3.92
2022-09-06T11:41:35.425Z,3.75
2022-09-06T11:44:06.394Z,3.55
2022-09-06T11:46:42.761Z,10.13
2022-09-06T11:49:31.794Z,4.15
2022-09-06T11:52:03.602Z,3.62
2022-09-06T11:54:37.183Z,9.80
2022-09-06T11:57:16.598Z,7.08
2022-09-06T11:59:55.385Z,4.37
2022-09-06T12:02:45.057Z,4.20
2022-09-06T12:05:26.099Z,3.70
2022-09-06T12:08:16.221Z,5.03
2022-09-06T12:11:08.078Z,5.40
2022-09-06T12:13:47.659Z,4.50
2022-09-06T12:16:18.870Z,3.65
2022-09-06T12:18:52.570Z,15.58
2022-09-06T12:21:40.499Z,4.62
2022-09-06T12:24:30.704Z,4.20
2022-09-06T12:27:16.292Z,4.00
2022-09-06T12:30:05.532Z,5.80
2022-09-06T12:32:39.411Z,4.03
2022-09-06T12:37:59.182Z,5.05
2022-09-06T12:40:41.377Z,3.58
2022-09-06T12:43:14.578Z,4.08
2022-09-06T12:45:47.551Z,3.87
2022-09-06T12:48:33.306Z,4.03
2022-09-06T12:51:10.976Z,4.20
2022-09-06T12:53:51.889Z,4.08
2022-09-06T12:56:24.809Z,4.10
2022-09-06T12:59:14.192Z,4.20
2022-09-06T13:01:49.093Z,4.17
2022-09-06T13:04:28.441Z,4.10
2022-09-06T13:07:01.196Z,4.72
2022-09-06T13:09:33.162Z,4.33
2022-09-06T13:12:06.813Z,4.20
2022-09-06T13:14:37.470Z,4.58
2022-09-06T13:17:08.387Z,5.05
2022-09-06T13:19:42.488Z,4.92
2022-09-06T13:22:14.535Z,4.80
2022-09-06T13:24:47.787Z,4.70
2022-09-06T13:27:34.603Z,4.37
2022-09-06T13:30:09.084Z,4.08
2022-09-06T13:32:42.798Z,4.50
2022-09-06T13:35:16.308Z,4.33
2022-09-06T13:37:48.496Z,4.58
2022-09-06T13:40:59.837Z,4.25
2022-09-06T13:43:14.926Z,4.10
2022-09-06T13:45:47.176Z,4.33
2022-09-06T13:48:28.743Z,4.50
2022-09-06T13:50:49.791Z,4.50
2022-09-06T13:53:23.370Z,4.67
2022-09-06T13:55:53.897Z,5.33
2022-09-06T13:58:24.468Z,4.95
2022-09-06T14:00:55.674Z,4.65
2022-09-06T14:03:29.421Z,4.95
2022-09-06T14:06:00.709Z,5.67
2022-09-06T14:08:55.747Z,4.53
2022-09-06T14:11:04.895Z,4.90
2022-09-06T14:13:35.476Z,4.20
2022-09-06T14:16:06.569Z,4.72
2022-09-06T14:18:37.297Z,5.20
2022-09-06T14:21:08.342Z,4.75
2022-09-06T14:23:39.267Z,4.90
2022-09-06T14:26:10.433Z,5.33
2022-09-06T14:28:40.877Z,5.50
2022-09-06T14:31:19.550Z,5.40
2022-09-06T14:33:50.681Z,5.08
2022-09-06T14:36:23.720Z,6.47
2022-09-06T14:38:54.729Z,5.12
2022-09-06T14:41:26.112Z,5.22
2022-09-06T14:43:58.366Z,4.40
2022-09-06T14:46:29.898Z,4.50
2022-09-06T14:49:09.918Z,4.10
2022-09-06T14:51:40.929Z,4.72
2022-09-06T14:54:13.207Z,4.70
2022-09-06T14:56:44.070Z,4.55
2022-09-06T14:59:15.078Z,4.83
2022-09-06T15:01:45.821Z,4.90
2022-09-06T15:04:16.413Z,6.70
2022-09-06T15:06:47.823Z,6.10
2022-09-06T15:09:18.775Z,5.05
2022-09-06T15:11:53.143Z,4.72
2022-09-06T15:14:26.431Z,4.83
2022-09-06T15:16:59.790Z,4.60
2022-09-06T15:19:32.453Z,4.58
2022-09-06T15:22:04.077Z,4.58
2022-09-06T15:24:34.777Z,4.60
2022-09-06T15:27:05.629Z,5.85
2022-09-06T15:29:36.332Z,5.28
2022-09-06T15:32:07.331Z,5.33
2022-09-06T15:34:37.840Z,4.90
2022-09-06T15:37:08.268Z,4.85
2022-09-06T15:39:38.795Z,4.53
2022-09-06T15:42:09.934Z,6.55
2022-09-06T15:44:40.479Z,6.30
2022-09-06T15:47:13.168Z,4.65
2022-09-06T15:49:44.020Z,5.45
2022-09-06T15:52:14.551Z,4.55
2022-09-06T15:55:02.959Z,4.60
2022-09-06T15:57:33.385Z,5.03
2022-09-06T16:00:05.287Z,11.03
2022-09-06T16:02:35.748Z,8.93
2022-09-06T16:05:06.988Z,5.12
2022-09-06T16:07:39.048Z,4.83
2022-09-06T16:10:11.602Z,4.62
2022-09-06T16:12:44.664Z,4.70
2022-09-06T16:15:15.017Z,5.30
2022-09-06T16:17:45.466Z,4.30
2022-09-06T16:20:16.276Z,4.90
2022-09-06T16:22:48.624Z,5.08
2022-09-06T16:25:19.083Z,4.83
2022-09-06T16:27:49.868Z,4.70
2022-09-06T16:30:20.338Z,4.97
2022-09-06T16:32:50.859Z,5.70
2022-09-06T16:35:21.385Z,5.12
2022-09-06T16:37:52.757Z,5.12
2022-09-06T16:40:27.589Z,4.87
2022-09-06T16:42:58.263Z,4.62
2022-09-06T16:45:28.805Z,5.00
2022-09-06T16:47:59.323Z,4.30
2022-09-06T16:50:30.109Z,4.50
2022-09-06T16:53:01.397Z,4.67
2022-09-06T16:55:32.001Z,4.22
2022-09-06T16:58:02.455Z,3.83
2022-09-06T17:00:33.002Z,4.12
2022-09-06T17:03:03.562Z,3.80
2022-09-06T17:05:35.829Z,4.20
2022-09-06T17:08:06.409Z,9.28
2022-09-06T17:10:39.395Z,4.45
2022-09-06T17:13:10.021Z,3.90
2022-09-06T17:15:58.681Z,4.42
2022-09-06T17:18:29.190Z,3.90
2022-09-06T17:21:01.994Z,3.90
2022-09-06T17:23:33.034Z,3.92
2022-09-06T17:26:04.310Z,3.80
2022-09-06T17:28:36.886Z,5.95
2022-09-06T17:31:08.147Z,6.05
2022-09-06T17:33:38.675Z,7.55
2022-09-06T17:36:14.831Z,3.80
2022-09-06T17:38:52.730Z,4.28
2022-09-06T17:41:25.004Z,4.03
2022-09-06T17:43:57.280Z,3.80
2022-09-06T17:46:29.153Z,3.52
2022-09-06T17:49:00.201Z,3.50
2022-09-06T17:51:31.123Z,3.50
2022-09-06T17:54:01.830Z,3.30
2022-09-06T17:56:33.743Z,4.50
2022-09-06T17:59:07.701Z,5.42
2022-09-06T18:01:41.159Z,5.65
2022-09-06T18:04:12.925Z,6.67
2022-09-06T18:06:45.989Z,6.17
2022-09-06T18:09:17.932Z,4.95
2022-09-06T18:11:48.430Z,4.17
2022-09-06T18:14:20.857Z,3.98
2022-09-06T18:16:53.033Z,4.00
2022-09-06T18:19:23.674Z,4.00
2022-09-06T18:21:56.890Z,6.12
2022-09-06T18:24:27.700Z,3.75
2022-09-06T18:26:58.233Z,4.15
2022-09-06T18:29:28.867Z,5.22
2022-09-06T18:31:59.583Z,3.62
2022-09-06T18:34:30.338Z,4.60
2022-09-06T18:37:00.888Z,4.12
2022-09-06T18:39:31.503Z,10.70
2022-09-06T18:42:03.873Z,9.00
2022-09-06T18:44:35.527Z,5.37
2022-09-06T18:47:08.785Z,13.90
2022-09-06T18:49:43.896Z,4.62
2022-09-06T18:52:12.010Z,4.20
2022-09-06T18:54:43.722Z,4.30
2022-09-06T18:57:15.773Z,3.90
2022-09-06T18:59:46.518Z,4.22
2022-09-06T19:02:17.043Z,3.70
2022-09-06T19:04:50.242Z,4.15
2022-09-06T19:07:20.769Z,3.87
2022-09-06T19:09:51.318Z,4.05
2022-09-06T19:12:22.267Z,3.98
2022-09-06T19:14:52.818Z,3.70
2022-09-06T19:17:23.342Z,3.60
2022-09-06T19:19:54.012Z,5.10
2022-09-06T19:22:24.599Z,4.10
2022-09-06T19:24:56.606Z,4.00
2022-09-06T19:27:27.477Z,3.80
2022-09-06T19:29:57.982Z,3.85
2022-09-06T19:32:28.534Z,5.00
2022-09-06T19:35:00.107Z,4.95
2022-09-06T19:37:31.526Z,3.77
2022-09-06T19:40:02.125Z,4.17
2022-09-06T19:42:32.799Z,4.37
2022-09-06T19:45:03.286Z,4.20
2022-09-06T19:47:33.819Z,4.17
2022-09-06T19:50:04.344Z,3.70
2022-09-06T19:52:34.856Z,3.90
2022-09-06T19:55:05.831Z,3.72
2022-09-06T19:57:36.278Z,5.72
2022-09-06T20:00:07.728Z,3.95
2022-09-06T20:02:38.170Z,4.33
2022-09-06T20:05:09.208Z,5.20
2022-09-06T20:07:39.706Z,4.33
2022-09-06T20:10:10.867Z,3.60
2022-09-06T20:12:41.380Z,3.42
2022-09-06T20:15:12.740Z,3.35
2022-09-06T20:17:43.199Z,3.60
2022-09-06T20:20:13.739Z,3.50
2022-09-06T20:22:47.895Z,3.10
2022-09-06T20:25:18.692Z,3.25
2022-09-06T20:27:49.235Z,3.40
2022-09-06T20:30:19.757Z,3.45
2022-09-06T20:32:50.188Z,3.20
2022-09-06T20:35:20.650Z,3.02
2022-09-06T20:37:51.519Z,3.30
2022-09-06T20:40:22.042Z,3.20
2022-09-06T20:42:53.625Z,3.08
2022-09-06T20:45:25.265Z,3.00
2022-09-06T20:47:57.547Z,3.52
2022-09-06T20:50:28.161Z,6.90
2022-09-06T20:52:58.615Z,3.75
2022-09-06T20:55:29.135Z,3.95
2022-09-06T20:57:59.581Z,3.60
2022-09-06T21:00:30.309Z,3.30
2022-09-06T21:03:00.979Z,3.27
2022-09-06T21:05:31.585Z,2.92
2022-09-06T21:08:02.268Z,3.22
2022-09-06T21:10:32.717Z,3.25
2022-09-06T21:13:03.701Z,3.10
2022-09-06T21:15:35.961Z,2.98
2022-09-06T21:18:06.462Z,3.33
2022-09-06T21:20:37.204Z,3.08
2022-09-06T21:23:07.968Z,3.00
2022-09-06T21:25:38.423Z,3.42
2022-09-06T21:28:08.932Z,3.12
2022-09-06T21:30:39.412Z,3.10
2022-09-06T21:33:09.876Z,3.00
2022-09-06T21:35:40.345Z,2.85
2022-09-06T21:38:10.944Z,7.33
2022-09-06T21:40:41.417Z,4.60
2022-09-06T21:43:11.974Z,3.22
2022-09-06T21:45:42.436Z,3.33
2022-09-06T21:48:14.592Z,3.00
2022-09-06T21:50:47.876Z,2.90
2022-09-06T21:53:19.236Z,2.85
2022-09-06T21:55:50.452Z,3.30
2022-09-06T21:58:20.971Z,2.92
2022-09-06T22:00:58.169Z,2.98
2022-09-06T22:03:30.991Z,3.10
2022-09-06T22:06:10.236Z,3.10
2022-09-06T22:08:43.830Z,2.75
2022-09-06T22:11:23.768Z,2.98
2022-09-06T22:13:54.518Z,2.80
2022-09-06T22:16:25.328Z,2.95
2022-09-06T22:18:56.269Z,3.35
2022-09-06T22:21:26.999Z,3.20
2022-09-06T22:24:00.290Z,3.27
2022-09-06T22:26:32.735Z,3.65
2022-09-06T22:29:06.428Z,3.15
2022-09-06T22:31:37.350Z,3.33
2022-09-06T22:34:08.458Z,3.33
2022-09-06T22:36:39.027Z,2.65
2022-09-06T22:39:09.835Z,2.90
2022-09-06T22:41:40.320Z,2.90
2022-09-06T22:44:10.821Z,2.87
2022-09-06T22:46:41.380Z,2.85
2022-09-06T22:49:12.259Z,2.77
2022-09-06T22:51:42.730Z,2.77
2022-09-06T22:54:13.347Z,2.70
2022-09-06T22:56:43.803Z,2.90
2022-09-06T22:59:14.230Z,2.75
2022-09-06T23:01:44.863Z,2.62
2022-09-06T23:04:15.438Z,2.85
2022-09-06T23:06:46.164Z,2.77
2022-09-06T23:09:16.681Z,2.80
2022-09-06T23:11:47.130Z,2.52
2022-09-06T23:14:17.621Z,2.70
2022-09-06T23:16:48.097Z,2.80
2022-09-06T23:19:18.541Z,3.02
2022-09-06T23:21:49.135Z,2.58
2022-09-06T23:24:19.583Z,2.65
2022-09-06T23:26:50.102Z,2.80
2022-09-06T23:29:20.989Z,3.02
2022-09-06T23:31:51.516Z,2.80
2022-09-06T23:34:22.184Z,2.75
2022-09-06T23:36:53.189Z,2.62
2022-09-06T23:39:23.637Z,2.42
2022-09-06T23:41:54.284Z,2.95
2022-09-06T23:44:24.977Z,3.02
2022-09-06T23:46:55.513Z,2.65
2022-09-06T23:49:26.105Z,2.60
2022-09-06T23:51:56.634Z,2.58
2022-09-06T23:54:27.205Z,2.77
2022-09-06T23:56:57.737Z,2.70
2022-09-06T23:59:28.182Z,2.80
